1872 Hurricane NOT_NAMED (1872253N13301)


IBTrACS version v04r00. Visit IBTrACS website for data access.
Please direct all questions to the IBTrACS Q and A forum

Storm track - Intensity - Wind Radii - Intensity Data - Source Data - All data

Summary Information

Storm ID 1872253N13301
Start Sep 9 00Z
Max Intensity 70 kt (Sep 12 00Z), 999 mb (Sep 14 12Z)
End Sep 20 18Z
ATCF IDs AL031872
Track status Best track data.

Storm track plot

Map of storm track

Intensity plots

Map of storm track

Radial wind information

No radial wind information for this storm


Position and Intensity Table

BASIN ISO_TIME_________ NATURE LAT LON WMO WIND USA WIND MLC WIND MLC PRES
degrees north degrees east kts kts kts mb
NA 1872-09-09 00:00:00 TS 12.63 -59.10 40 40 40
NA 03:00:00 TS 12.77 -59.31 40 40
NA 06:00:00 TS 12.93 -59.53 40 40 40
NA 09:00:00 TS 13.16 -59.78 40 40
NA 12:00:00 TS 13.43 -60.03 40 40 40
NA 15:00:00 TS 13.73 -60.26 40 47
NA 18:00:00 TS 14.07 -60.50 40 40 55
NA 21:00:00 TS 14.40 -60.78 45 55
NA 1872-09-10 00:00:00 TS 14.77 -61.07 50 50 55
NA 03:00:00 TS 15.17 -61.31 50 57
NA 06:00:00 TS 15.60 -61.53 50 50 60
NA 09:00:00 TS 16.01 -61.76 50 62
NA 12:00:00 TS 16.43 -62.00 50 50 65
NA 15:00:00 TS 16.87 -62.26 50 65
NA 18:00:00 TS 17.30 -62.53 50 50 65
NA 21:00:00 TS 17.70 -62.82 55 65
NA 1872-09-11 00:00:00 TS 18.10 -63.07 60 60 65
NA 03:00:00 TS 18.54 -63.23 60 65
NA 06:00:00 TS 19.00 -63.37 60 60 65
NA 09:00:00 TS 19.44 -63.53 60 65
NA 12:00:00 TS 19.90 -63.67 60 60 65
NA 15:00:00 TS 20.45 -63.77 60 65
NA 18:00:00 TS 20.97 -63.83 60 60 65
NA 21:00:00 TS 21.33 -63.89 65 65
NA 1872-09-12 00:00:00 TS 21.67 -63.93 70 70 65
NA 03:00:00 TS 22.08 -63.98 70 65
NA 06:00:00 TS 22.50 -64.00 70 70 65
NA 09:00:00 TS 22.85 -63.99 70 65
NA 12:00:00 TS 23.20 -63.97 70 70 65
NA 15:00:00 TS 23.59 -63.95 70 65
NA 18:00:00 TS 23.97 -63.93 70 70 65
NA 21:00:00 TS 24.30 -63.91 70 65
NA 1872-09-13 00:00:00 TS 24.63 -63.87 70 70 65
NA 03:00:00 TS 24.98 -63.80 70 65
NA 06:00:00 TS 25.33 -63.73 70 70 65
NA 09:00:00 TS 25.67 -63.71 70 65
NA 12:00:00 TS 26.00 -63.70 70 70 65
NA 15:00:00 TS 26.35 -63.67 70 65
NA 18:00:00 TS 26.70 -63.63 70 70 65
NA 21:00:00 TS 27.02 -63.60 70 67
NA 1872-09-14 00:00:00 TS 27.33 -63.57 70 70 70
NA 03:00:00 TS 27.68 -63.51 70 70
NA 06:00:00 TS 28.03 -63.43 70 70 70
NA 09:00:00 TS 28.34 -63.37 70 70
NA 12:00:00 TS 28.67 -63.30 70 70 70 999
NA 15:00:00 TS 29.08 -63.21 70 70
NA 18:00:00 TS 29.50 -63.13 70 70 70
NA 21:00:00 TS 29.86 -63.08 70 70
NA 1872-09-15 00:00:00 TS 30.20 -63.03 70 70 70
NA 03:00:00 TS 30.53 -62.99 70 70
NA 06:00:00 TS 30.87 -62.93 70 70 70
NA 09:00:00 TS 31.22 -62.87 70 70
NA 12:00:00 TS 31.57 -62.80 70 70 70
NA 15:00:00 TS 31.86 -62.71 70 70
NA 18:00:00 TS 32.13 -62.60 70 70 70
NA 21:00:00 TS 32.43 -62.48 70 70
NA 1872-09-16 00:00:00 TS 32.73 -62.37 70 70 70
NA 03:00:00 TS 33.05 -62.26 70 70
NA 06:00:00 TS 33.37 -62.17 70 70 70
NA 09:00:00 TS 33.64 -62.07 70 70
NA 12:00:00 TS 33.90 -61.97 70 70 70
NA 15:00:00 TS 34.13 -61.84 70 70
NA 18:00:00 TS 34.40 -61.67 70 70 70
NA 21:00:00 TS 34.78 -61.45 70 70
NA 1872-09-17 00:00:00 TS 35.20 -61.20 70 70 70
NA 03:00:00 TS 35.56 -60.98 70 70
NA 06:00:00 TS 35.93 -60.73 70 70 70
NA 09:00:00 TS 36.40 -60.44 70 70
NA 12:00:00 TS 36.87 -60.13 70 70 70
NA 15:00:00 TS 37.25 -59.87 70 70
NA 18:00:00 TS 37.60 -59.63 70 70 70
NA 21:00:00 TS 37.94 -59.44 70 70
NA 1872-09-18 00:00:00 TS 38.27 -59.27 70 70 70
NA 03:00:00 TS 38.62 -59.09 70 70
NA 06:00:00 TS 38.97 -58.90 70 70 70
NA 09:00:00 TS 39.31 -58.68 70 70
NA 12:00:00 TS 39.63 -58.47 70 70 70
NA 15:00:00 TS 39.92 -58.28 70 70
NA 18:00:00 TS 40.23 -58.10 70 70 70
NA 21:00:00 TS 40.65 -57.94 70 70
NA 1872-09-19 00:00:00 TS 41.07 -57.77 70 70 70
NA 03:00:00 TS 41.39 -57.52 70 70
NA 06:00:00 TS 41.67 -57.27 70 70 70
NA 09:00:00 TS 41.94 -57.04 70 70
NA 12:00:00 TS 42.20 -56.83 70 70 70
NA 15:00:00 TS 42.45 -56.63 70 70
NA 18:00:00 TS 42.73 -56.43 70 70 70
NA 21:00:00 TS 43.08 -56.25 70 70
NA 1872-09-20 00:00:00 TS 43.43 -56.07 70 70 70
NA 03:00:00 TS 43.70 -55.87 70 70
NA 06:00:00 TS 43.97 -55.67 70 70 70
NA 09:00:00 TS 44.27 -55.45 70 67
NA 12:00:00 TS 44.60 -55.23 70 70 65
NA 15:00:00 TS 44.93 -55.03 70 62
NA 18:00:00 MX 45.27 -54.83 70 70 60

Source Information

Agency Information
USA hurdat2-1851-2019-042820.txt:Line=2405:UNNAMED
TOKYO
CMA
HKO
NEWDELHI
REUNION
BOM
NADI
WELLINGTON
DS824
TD9636
TD9635
NEUMANN
MLC

All available IBTrACS Data

SEASON BASIN SUBBASIN ISO_TIME_________ NATURE LAT LON WMO WIND WMO AGENCY DIST2LAND LANDFALL IFLAG USA AGENCY USA ATCF_ID USA LAT USA LON USA STATUS USA WIND USA SSHS MLC LAT MLC LON MLC CLASS MLC WIND MLC PRES STORM SPEED STORM DIR
Year degrees north degrees east kts km km degrees north degrees east kts 1 degrees north degrees east kts mb kts degrees
1872 NA NA 1872-09-09 00:00:00 TS 12.63 -59.10 40 hurdat_atl 296 290 O____________O hurdat_atl AL031872 12.50 -59.40 TS 40 0 12.90 -58.50 TS 40 5 303
1872 NA NA 03:00:00 TS 12.77 -59.31 299 292 P____________P AL031872 12.63 -59.55 TS 40 0 13.04 -58.83 TS 40 5 305
1872 NA CS 06:00:00 TS 12.93 -59.53 40 hurdat_atl 295 293 O____________O hurdat_atl AL031872 12.80 -59.70 TS 40 0 13.20 -59.20 TS 40 6 310
1872 NA CS 09:00:00 TS 13.16 -59.78 308 304 P____________P AL031872 13.03 -59.85 TS 40 0 13.42 -59.64 TS 40 7 316
1872 NA CS 12:00:00 TS 13.43 -60.03 40 hurdat_atl 321 321 O____________O hurdat_atl AL031872 13.30 -60.00 TS 40 0 13.70 -60.10 TS 40 7 321
1872 NA CS 15:00:00 TS 13.73 -60.26 344 344 P____________P AL031872 13.60 -60.15 TS 40 0 14.00 -60.49 TS 47 8 324
1872 NA CS 18:00:00 TS 14.07 -60.50 40 hurdat_atl 384 383 O____________O hurdat_atl AL031872 13.90 -60.30 TS 40 0 14.40 -60.90 TS 55 8 323
1872 NA CS 21:00:00 TS 14.40 -60.78 414 414 P____________P AL031872 14.13 -60.44 TS 45 0 14.94 -61.46 TS 55 9 322
1872 NA CS 1872-09-10 00:00:00 TS 14.77 -61.07 50 hurdat_atl 459 459 O____________O hurdat_atl AL031872 14.40 -60.60 TS 50 0 15.50 -62.00 TS 55 9 327
1872 NA CS 03:00:00 TS 15.17 -61.31 503 503 P____________P AL031872 14.78 -60.79 TS 50 0 15.96 -62.35 TS 57 10 332
1872 NA CS 06:00:00 TS 15.60 -61.53 50 hurdat_atl 524 482 O____________O hurdat_atl AL031872 15.20 -61.00 TS 50 0 16.40 -62.60 TS 60 10 333
1872 NA CS 09:00:00 TS 16.01 -61.76 473 432 P____________P AL031872 15.59 -61.24 TS 50 0 16.86 -62.82 TS 62 10 332
1872 NA CS 12:00:00 TS 16.43 -62.00 50 hurdat_atl 432 393 O____________O hurdat_atl AL031872 16.00 -61.50 TS 50 0 17.30 -63.00 HU 65 10 331
1872 NA CS 15:00:00 TS 16.87 -62.26 378 343 P____________P AL031872 16.45 -61.79 TS 50 0 17.71 -63.20 HU 65 10 330
1872 NA CS 18:00:00 TS 17.30 -62.53 50 hurdat_atl 343 301 O____________O hurdat_atl AL031872 16.90 -62.10 TS 50 0 18.10 -63.40 HU 65 10 327
1872 NA CS 21:00:00 TS 17.70 -62.82 301 264 P____________P AL031872 17.29 -62.42 TS 55 0 18.51 -63.62 HU 65 10 328
1872 NA CS 1872-09-11 00:00:00 TS 18.10 -63.07 60 hurdat_atl 264 253 O____________O hurdat_atl AL031872 17.70 -62.70 TS 60 0 18.90 -63.80 HU 65 9 335
1872 NA CS 03:00:00 TS 18.54 -63.23 253 238 P____________P AL031872 18.18 -62.92 TS 60 0 19.26 -63.87 HU 65 9 342
1872 NA NA 06:00:00 TS 19.00 -63.37 60 hurdat_atl 241 238 O____________O hurdat_atl AL031872 18.70 -63.10 TS 60 0 19.60 -63.90 HU 65 9 343
1872 NA NA 09:00:00 TS 19.44 -63.53 247 243 P____________P AL031872 19.19 -63.32 TS 60 0 19.94 -63.95 HU 65 9 343
1872 NA NA 12:00:00 TS 19.90 -63.67 60 hurdat_atl 260 260 O____________O hurdat_atl AL031872 19.70 -63.50 TS 60 0 20.30 -64.00 HU 65 10 347
1872 NA NA 15:00:00 TS 20.45 -63.77 292 292 P____________P AL031872 20.32 -63.62 TS 60 0 20.70 -64.05 HU 65 11 352
1872 NA NA 18:00:00 TS 20.97 -63.83 60 hurdat_atl 346 346 O____________O hurdat_atl AL031872 20.90 -63.70 TS 60 0 21.10 -64.10 HU 65 9 352
1872 NA NA 21:00:00 TS 21.33 -63.89 369 369 P____________P AL031872 21.27 -63.77 TS 65 1 21.46 -64.14 HU 65 7 352
1872 NA NA 1872-09-12 00:00:00 TS 21.67 -63.93 70 hurdat_atl 409 409 O____________O hurdat_atl AL031872 21.60 -63.80 HU 70 1 21.80 -64.20 HU 65 8 354
1872 NA NA 03:00:00 TS 22.08 -63.98 446 446 P____________P AL031872 22.05 -63.81 HU 70 1 22.15 -64.30 HU 65 8 356
1872 NA NA 06:00:00 TS 22.50 -64.00 70 hurdat_atl 487 487 O____________O hurdat_atl AL031872 22.50 -63.80 HU 70 1 22.50 -64.40 HU 65 8 0
1872 NA NA 09:00:00 TS 22.85 -63.99 530 530 P____________P AL031872 22.86 -63.76 HU 70 1 22.85 -64.46 HU 65 7 3
1872 NA NA 12:00:00 TS 23.20 -63.97 70 hurdat_atl 561 561 O____________O hurdat_atl AL031872 23.20 -63.70 HU 70 1 23.20 -64.50 HU 65 7 3
1872 NA NA 15:00:00 TS 23.59 -63.95 604 604 P____________P AL031872 23.60 -63.65 HU 70 1 23.56 -64.56 HU 65 8 2
1872 NA NA 18:00:00 TS 23.97 -63.93 70 hurdat_atl 650 650 O____________O hurdat_atl AL031872 24.00 -63.60 HU 70 1 23.90 -64.60 HU 65 7 2
1872 NA NA 21:00:00 TS 24.30 -63.91 682 682 P____________P AL031872 24.36 -63.56 HU 70 1 24.20 -64.61 HU 65 7 5
1872 NA NA 1872-09-13 00:00:00 TS 24.63 -63.87 70 hurdat_atl 715 715 O____________O hurdat_atl AL031872 24.70 -63.50 HU 70 1 24.50 -64.60 HU 65 7 8
1872 NA NA 03:00:00 TS 24.98 -63.80 760 760 P____________P AL031872 25.05 -63.40 HU 70 1 24.85 -64.59 HU 65 7 10
1872 NA NA 06:00:00 TS 25.33 -63.73 70 hurdat_atl 795 795 O____________O hurdat_atl AL031872 25.40 -63.30 HU 70 1 25.20 -64.60 HU 65 7 6
1872 NA NA 09:00:00 TS 25.67 -63.71 839 839 P____________P AL031872 25.75 -63.24 HU 70 1 25.50 -64.65 HU 65 7 4
1872 NA NA 12:00:00 TS 26.00 -63.70 70 hurdat_atl 871 871 O____________O hurdat_atl AL031872 26.10 -63.20 HU 70 1 25.80 -64.70 HU 65 7 2
1872 NA NA 15:00:00 TS 26.35 -63.67 915 915 P____________P AL031872 26.46 -63.15 HU 70 1 26.14 -64.71 HU 65 7 5
1872 NA NA 18:00:00 TS 26.70 -63.63 70 hurdat_atl 950 950 O____________O hurdat_atl AL031872 26.80 -63.10 HU 70 1 26.50 -64.70 HU 65 7 5
1872 NA NA 21:00:00 TS 27.02 -63.60 982 982 P____________P AL031872 27.10 -63.06 HU 70 1 26.85 -64.70 HU 67 6 5
1872 NA NA 1872-09-14 00:00:00 TS 27.33 -63.57 70 hurdat_atl 1015 1015 O____________O hurdat_atl AL031872 27.40 -63.00 HU 70 1 27.20 -64.70 HU 70 7 8
1872 NA NA 03:00:00 TS 27.68 -63.51 1061 1061 P____________P AL031872 27.75 -62.90 HU 70 1 27.55 -64.71 HU 70 7 10
1872 NA NA 06:00:00 TS 28.03 -63.43 70 hurdat_atl 1096 1096 O____________O hurdat_atl AL031872 28.10 -62.80 HU 70 1 27.90 -64.70 HU 70 7 10
1872 NA NA 09:00:00 TS 28.34 -63.37 1128 1128 P____________P AL031872 28.38 -62.75 HU 70 1 28.25 -64.61 HU 70 6 10
1872 NA NA 12:00:00 TS 28.67 -63.30 70 hurdat_atl 1174 1174 O____________O hurdat_atl AL031872 28.70 -62.70 HU 70 1 28.60 -64.50 HU 70 999 8 10
1872 NA NA 15:00:00 TS 29.08 -63.21 1220 1220 P____________P AL031872 29.14 -62.60 HU 70 1 28.95 -64.44 HU 70 8 10
1872 NA NA 18:00:00 TS 29.50 -63.13 70 hurdat_atl 1266 1266 O____________O hurdat_atl AL031872 29.60 -62.50 HU 70 1 29.30 -64.40 HU 70 8 9
1872 NA NA 21:00:00 TS 29.86 -63.08 1309 1309 P____________P AL031872 29.96 -62.44 HU 70 1 29.66 -64.35 HU 70 7 7
1872 NA NA 1872-09-15 00:00:00 TS 30.20 -63.03 70 hurdat_atl 1318 1301 O____________O hurdat_atl AL031872 30.30 -62.40 HU 70 1 30.00 -64.30 HU 70 7 6
1872 NA NA 03:00:00 TS 30.53 -62.99 1301 1285 P____________P AL031872 30.65 -62.35 HU 70 1 30.30 -64.26 HU 70 7 8
1872 NA NA 06:00:00 TS 30.87 -62.93 70 hurdat_atl 1288 1272 O____________O hurdat_atl AL031872 31.00 -62.30 HU 70 1 30.60 -64.20 HU 70 7 8
1872 NA NA 09:00:00 TS 31.22 -62.87 1272 1266 P____________P AL031872 31.36 -62.25 HU 70 1 30.94 -64.12 HU 70 7 9
1872 NA NA 12:00:00 TS 31.57 -62.80 70 hurdat_atl 1261 1256 O____________O hurdat_atl AL031872 31.70 -62.20 HU 70 1 31.30 -64.00 HU 70 7 13
1872 NA NA 15:00:00 TS 31.86 -62.71 1256 1251 P____________P AL031872 31.96 -62.16 HU 70 1 31.66 -63.81 HU 70 6 16
1872 NA NA 18:00:00 TS 32.13 -62.60 70 hurdat_atl 1253 1229 O____________O hurdat_atl AL031872 32.20 -62.10 HU 70 1 32.00 -63.60 HU 70 6 18
1872 NA NA 21:00:00 TS 32.43 -62.48 1229 1205 P____________P AL031872 32.49 -62.00 HU 70 1 32.31 -63.45 HU 70 6 18
1872 NA NA 1872-09-16 00:00:00 TS 32.73 -62.37 70 hurdat_atl 1205 1181 O____________O hurdat_atl AL031872 32.80 -61.90 HU 70 1 32.60 -63.30 HU 70 7 17
1872 NA NA 03:00:00 TS 33.05 -62.26 1172 1149 P____________P AL031872 33.16 -61.84 HU 70 1 32.85 -63.11 HU 70 7 15
1872 NA NA 06:00:00 TS 33.37 -62.17 70 hurdat_atl 1149 1136 O____________O hurdat_atl AL031872 33.50 -61.80 HU 70 1 33.10 -62.90 HU 70 6 15
1872 NA NA 09:00:00 TS 33.64 -62.07 1136 1106 P____________P AL031872 33.76 -61.76 HU 70 1 33.40 -62.71 HU 70 6 18
1872 NA NA 12:00:00 TS 33.90 -61.97 70 hurdat_atl 1106 1086 O____________O hurdat_atl AL031872 34.00 -61.70 HU 70 1 33.70 -62.50 HU 70 5 22
1872 NA NA 15:00:00 TS 34.13 -61.84 1089 1059 P____________P AL031872 34.23 -61.62 HU 70 1 33.93 -62.26 HU 70 6 26
1872 NA NA 18:00:00 TS 34.40 -61.67 70 hurdat_atl 1059 1021 O____________O hurdat_atl AL031872 34.50 -61.50 HU 70 1 34.20 -62.00 HU 70 7 26
1872 NA NA 21:00:00 TS 34.78 -61.45 1024 988 P____________P AL031872 34.89 -61.32 HU 70 1 34.58 -61.71 HU 70 9 26
1872 NA NA 1872-09-17 00:00:00 TS 35.20 -61.20 70 hurdat_atl 988 963 O____________O hurdat_atl AL031872 35.30 -61.10 HU 70 1 35.00 -61.40 HU 70 9 26
1872 NA NA 03:00:00 TS 35.56 -60.98 952 928 P____________P AL031872 35.63 -60.91 HU 70 1 35.40 -61.10 HU 70 8 27
1872 NA NA 06:00:00 TS 35.93 -60.73 70 hurdat_atl 932 888 O____________O hurdat_atl AL031872 36.00 -60.70 HU 70 1 35.80 -60.80 HU 70 10 27
1872 NA NA 09:00:00 TS 36.40 -60.44 892 861 P____________P AL031872 36.50 -60.40 HU 70 1 36.20 -60.51 HU 70 11 27
1872 NA NA 12:00:00 TS 36.87 -60.13 70 hurdat_atl 855 835 O____________O hurdat_atl AL031872 37.00 -60.10 HU 70 1 36.60 -60.20 HU 70 10 28
1872 NA NA 15:00:00 TS 37.25 -59.87 826 807 P____________P AL031872 37.38 -59.88 HU 70 1 37.00 -59.84 HU 70 8 29
1872 NA NA 18:00:00 TS 37.60 -59.63 70 hurdat_atl 812 790 O____________O hurdat_atl AL031872 37.70 -59.70 HU 70 1 37.40 -59.50 HU 70 8 26
1872 NA NA 21:00:00 TS 37.94 -59.44 795 774 P____________P AL031872 38.01 -59.54 HU 70 1 37.79 -59.23 HU 70 7 23
1872 NA NA 1872-09-18 00:00:00 TS 38.27 -59.27 70 hurdat_atl 764 744 O____________O hurdat_atl AL031872 38.30 -59.40 HU 70 1 38.20 -59.00 HU 70 7 22
1872 NA NA 03:00:00 TS 38.62 -59.09 744 716 P____________P AL031872 38.60 -59.26 HU 70 1 38.65 -58.75 HU 70 8 22
1872 NA NA 06:00:00 TS 38.97 -58.90 70 hurdat_atl 710 684 O____________O hurdat_atl AL031872 38.90 -59.10 HU 70 1 39.10 -58.50 HU 70 8 24
1872 NA NA 09:00:00 TS 39.31 -58.68 684 658 P____________P AL031872 39.21 -58.90 HU 70 1 39.51 -58.25 HU 70 7 27
1872 NA NA 12:00:00 TS 39.63 -58.47 70 hurdat_atl 658 632 O____________O hurdat_atl AL031872 39.50 -58.70 HU 70 1 39.90 -58.00 HU 70 7 27
1872 NA NA 15:00:00 TS 39.92 -58.28 632 607 P____________P AL031872 39.73 -58.55 HU 70 1 40.31 -57.73 HU 70 7 25
1872 NA NA 18:00:00 TS 40.23 -58.10 70 hurdat_atl 607 569 O____________O hurdat_atl AL031872 40.00 -58.40 HU 70 1 40.70 -57.50 HU 70 8 19
1872 NA NA 21:00:00 TS 40.65 -57.94 573 537 P____________P AL031872 40.44 -58.22 HU 70 1 41.06 -57.38 HU 70 9 17
1872 NA NA 1872-09-19 00:00:00 TS 41.07 -57.77 70 hurdat_atl 528 507 O____________O hurdat_atl AL031872 40.90 -58.00 HU 70 1 41.40 -57.30 HU 70 8 23
1872 NA NA 03:00:00 TS 41.39 -57.52 512 494 P____________P AL031872 41.23 -57.71 HU 70 1 41.71 -57.16 HU 70 7 32
1872 NA NA 06:00:00 TS 41.67 -57.27 70 hurdat_atl 494 487 O____________O hurdat_atl AL031872 41.50 -57.40 HU 70 1 42.00 -57.00 HU 70 7 33
1872 NA NA 09:00:00 TS 41.94 -57.04 492 469 P____________P AL031872 41.76 -57.14 HU 70 1 42.30 -56.84 HU 70 6 31
1872 NA NA 12:00:00 TS 42.20 -56.83 70 hurdat_atl 474 461 O____________O hurdat_atl AL031872 42.00 -56.90 HU 70 1 42.60 -56.70 HU 70 6 31
1872 NA NA 15:00:00 TS 42.45 -56.63 458 447 P____________P AL031872 42.25 -56.64 HU 70 1 42.86 -56.60 HU 70 6 29
1872 NA NA 18:00:00 TS 42.73 -56.43 70 hurdat_atl 452 413 O____________O hurdat_atl AL031872 42.50 -56.40 HU 70 1 43.20 -56.50 HU 70 7 24
1872 NA NA 21:00:00 TS 43.08 -56.25 413 379 P____________P AL031872 42.76 -56.20 HU 70 1 43.72 -56.35 HU 70 7 21
1872 NA NA 1872-09-20 00:00:00 TS 43.43 -56.07 70 hurdat_atl 379 344 O____________O hurdat_atl AL031872 43.00 -56.00 HU 70 1 44.30 -56.20 HU 70 7 24
1872 NA NA 03:00:00 TS 43.70 -55.87 344 311 P____________P AL031872 43.16 -55.76 HU 70 1 44.80 -56.10 HU 70 6 28
1872 NA NA 06:00:00 TS 43.97 -55.67 70 hurdat_atl 311 278 O____________O hurdat_atl AL031872 43.30 -55.50 HU 70 1 45.30 -56.00 HU 70 6 28
1872 NA NA 09:00:00 TS 44.27 -55.45 278 246 P____________P AL031872 43.48 -55.25 HU 70 1 45.85 -55.85 HU 67 7 26
1872 NA NA 12:00:00 TS 44.60 -55.23 70 hurdat_atl 247 216 O____________O hurdat_atl AL031872 43.70 -55.00 HU 70 1 46.40 -55.70 HU 65 7 24
1872 NA NA 15:00:00 TS 44.93 -55.03 217 180 P____________P AL031872 43.94 -54.75 HU 70 1 46.91 -55.59 HU 62 7 23
1872 NA NA 18:00:00 MX 45.27 -54.83 70 hurdat_atl 171 O____________O hurdat_atl AL031872 44.20 -54.50 HU 70 1 47.40 -55.50 EX 60 7 22